createdAt,value
2018-11-12T00:00:29.287Z,17.90
2018-11-12T00:02:58.904Z,17.80
2018-11-12T00:05:27.740Z,17.90
2018-11-12T00:07:56.379Z,17.90
2018-11-12T00:10:25.240Z,17.80
2018-11-12T00:12:53.871Z,17.80
2018-11-12T00:15:22.547Z,17.80
2018-11-12T00:17:51.288Z,17.80
2018-11-12T00:20:19.988Z,17.80
2018-11-12T00:22:48.638Z,17.90
2018-11-12T00:25:17.296Z,17.80
2018-11-12T00:27:45.948Z,17.80
2018-11-12T00:30:16.887Z,17.80
2018-11-12T00:32:46.248Z,17.80
2018-11-12T00:35:14.906Z,17.80
2018-11-12T00:37:44.152Z,17.80
2018-11-12T00:40:15.068Z,17.80
2018-11-12T00:42:44.139Z,17.80
2018-11-12T00:45:12.978Z,17.80
2018-11-12T00:47:41.896Z,17.80
2018-11-12T00:50:11.848Z,17.90
2018-11-12T00:52:40.473Z,17.80
2018-11-12T00:55:11.066Z,17.80
2018-11-12T00:57:40.156Z,17.80
2018-11-12T01:00:12.329Z,17.80
2018-11-12T01:02:42.448Z,17.80
2018-11-12T01:05:11.104Z,17.80
2018-11-12T01:07:39.712Z,17.80
2018-11-12T01:10:10.547Z,17.80
2018-11-12T01:12:39.436Z,17.80
2018-11-12T01:15:10.474Z,17.80
2018-11-12T01:17:39.160Z,17.80
2018-11-12T01:20:08.669Z,17.80
2018-11-12T01:22:37.333Z,17.80
2018-11-12T01:25:06.966Z,17.80
2018-11-12T01:27:35.644Z,17.80
2018-11-12T01:30:05.195Z,17.80
2018-11-12T01:32:33.823Z,17.80
2018-11-12T01:35:02.460Z,17.80
2018-11-12T01:37:31.080Z,17.80
2018-11-12T01:39:59.704Z,17.80
2018-11-12T01:42:28.334Z,17.80
2018-11-12T01:44:56.968Z,17.80
2018-11-12T01:47:25.580Z,17.80
2018-11-12T01:49:54.214Z,17.90
2018-11-12T01:52:22.853Z,17.80
2018-11-12T01:54:51.472Z,17.80
2018-11-12T01:57:20.224Z,17.80
2018-11-12T01:59:48.881Z,17.80
2018-11-12T02:02:17.571Z,17.90
2018-11-12T02:04:46.245Z,17.90
2018-11-12T02:07:14.875Z,17.90
2018-11-12T02:09:43.479Z,17.80
2018-11-12T02:12:12.128Z,17.80
2018-11-12T02:14:40.787Z,17.90
2018-11-12T02:17:09.453Z,17.90
2018-11-12T02:19:38.083Z,17.90
2018-11-12T02:22:06.790Z,17.90
2018-11-12T02:24:35.417Z,17.90
2018-11-12T02:27:04.091Z,17.90
2018-11-12T02:29:32.772Z,18.10
2018-11-12T02:32:01.402Z,17.90
2018-11-12T02:34:30.012Z,17.90
2018-11-12T02:36:58.645Z,17.90
2018-11-12T02:39:27.295Z,17.80
2018-11-12T02:41:55.923Z,17.90
2018-11-12T02:44:24.588Z,17.80
2018-11-12T02:46:53.209Z,17.80
2018-11-12T02:49:21.861Z,17.80
2018-11-12T02:51:50.498Z,17.90
2018-11-12T02:54:19.131Z,17.90
2018-11-12T02:56:47.760Z,17.90
2018-11-12T02:59:16.452Z,17.90
2018-11-12T03:01:45.096Z,17.90
2018-11-12T03:04:14.355Z,17.90
2018-11-12T03:06:43.020Z,17.90
2018-11-12T03:09:13.207Z,17.90
2018-11-12T03:11:42.328Z,17.90
2018-11-12T03:14:10.941Z,17.90
2018-11-12T03:16:39.816Z,17.90
2018-11-12T03:19:08.445Z,17.90
2018-11-12T03:21:37.069Z,17.90
2018-11-12T03:24:05.854Z,17.90
2018-11-12T03:26:34.471Z,17.90
2018-11-12T03:29:03.133Z,17.90
2018-11-12T03:31:31.769Z,17.90
2018-11-12T03:34:00.385Z,17.90
2018-11-12T03:36:29.064Z,17.90
2018-11-12T03:38:57.684Z,17.90
2018-11-12T03:41:26.316Z,17.90
2018-11-12T03:43:54.956Z,17.90
2018-11-12T03:46:23.656Z,17.90
2018-11-12T03:48:52.279Z,17.80
2018-11-12T03:51:20.913Z,17.80
2018-11-12T03:53:49.550Z,17.80
2018-11-12T03:56:18.207Z,17.80
2018-11-12T03:58:46.844Z,17.80
2018-11-12T04:01:15.481Z,17.90
2018-11-12T04:03:44.132Z,17.80
2018-11-12T04:06:12.799Z,17.90
2018-11-12T04:08:41.439Z,17.90
2018-11-12T04:11:10.035Z,17.90
2018-11-12T04:13:38.649Z,17.90
2018-11-12T04:16:07.307Z,17.90
2018-11-12T04:18:35.937Z,17.80
2018-11-12T04:21:04.733Z,17.80
2018-11-12T04:23:33.397Z,17.90
2018-11-12T04:26:02.015Z,17.90
2018-11-12T04:28:30.653Z,17.80
2018-11-12T04:30:59.265Z,17.80
2018-11-12T04:33:27.901Z,17.80
2018-11-12T04:35:56.530Z,17.90
2018-11-12T04:38:25.152Z,17.90
2018-11-12T04:40:53.827Z,17.80
2018-11-12T04:43:22.458Z,17.80
2018-11-12T04:45:51.082Z,17.80
2018-11-12T04:48:19.745Z,17.80
2018-11-12T04:50:48.388Z,17.80
2018-11-12T04:53:17.011Z,17.80
2018-11-12T04:55:45.629Z,17.80
2018-11-12T04:58:14.256Z,17.80
2018-11-12T05:00:42.880Z,17.70
2018-11-12T05:03:11.520Z,17.80
2018-11-12T05:05:40.151Z,17.80
2018-11-12T05:08:08.761Z,17.70
2018-11-12T05:10:37.372Z,17.80
2018-11-12T05:13:06.169Z,17.80
2018-11-12T05:15:34.775Z,17.80
2018-11-12T05:18:03.444Z,17.80
2018-11-12T05:20:32.076Z,17.80
2018-11-12T05:23:00.696Z,17.80
2018-11-12T05:25:29.343Z,17.80
2018-11-12T05:27:57.988Z,17.80
2018-11-12T05:30:27.777Z,17.80
2018-11-12T05:32:56.803Z,17.80
2018-11-12T05:35:26.659Z,17.80
2018-11-12T05:37:55.348Z,17.80
2018-11-12T05:40:26.084Z,17.80
2018-11-12T05:42:54.754Z,17.80
2018-11-12T05:45:24.583Z,17.80
2018-11-12T05:47:53.215Z,17.80
2018-11-12T05:50:23.132Z,17.80
2018-11-12T05:52:53.096Z,17.80
2018-11-12T05:55:23.111Z,17.80
2018-11-12T05:57:51.706Z,17.90
2018-11-12T06:00:28.207Z,17.90
2018-11-12T06:02:56.783Z,17.80
2018-11-12T06:05:25.374Z,17.80
2018-11-12T06:07:54.012Z,17.80
2018-11-12T06:10:25.719Z,17.80
2018-11-12T06:12:54.300Z,17.80
2018-11-12T06:15:22.895Z,17.80
2018-11-12T06:17:52.081Z,17.80
2018-11-12T06:20:24.023Z,17.80
2018-11-12T06:22:52.715Z,17.80
2018-11-12T06:25:22.800Z,17.80
2018-11-12T06:27:51.699Z,17.80
2018-11-12T06:30:22.428Z,17.70
2018-11-12T06:32:51.072Z,17.70
2018-11-12T06:35:20.208Z,17.70
2018-11-12T06:37:49.652Z,17.70
2018-11-12T06:40:20.444Z,17.60
2018-11-12T06:42:49.175Z,17.60
2018-11-12T06:45:19.562Z,17.60
2018-11-12T06:47:49.011Z,17.60
2018-11-12T06:50:18.931Z,17.60
2018-11-12T06:52:47.560Z,17.60
2018-11-12T06:55:16.759Z,17.60
2018-11-12T06:57:45.651Z,17.60
2018-11-12T07:00:16.541Z,17.70
2018-11-12T07:02:45.183Z,17.70
2018-11-12T07:05:14.267Z,17.70
2018-11-12T07:07:42.993Z,17.60
2018-11-12T07:10:13.479Z,17.60
2018-11-12T07:12:42.992Z,17.70
2018-11-12T07:15:12.999Z,17.70
2018-11-12T07:17:41.632Z,17.70
2018-11-12T07:20:12.589Z,17.70
2018-11-12T07:22:41.216Z,17.70
2018-11-12T07:25:10.780Z,17.70
2018-11-12T07:27:39.556Z,17.70
2018-11-12T07:30:12.267Z,17.70
2018-11-12T07:32:40.872Z,17.80
2018-11-12T07:35:11.007Z,17.80
2018-11-12T07:37:40.073Z,17.80
2018-11-12T07:40:09.696Z,17.80
2018-11-12T07:42:39.120Z,17.80
2018-11-12T07:45:09.831Z,17.80
2018-11-12T07:47:38.619Z,17.80
2018-11-12T07:50:10.443Z,17.80
2018-11-12T07:52:39.176Z,17.90
2018-11-12T07:55:10.305Z,17.90
2018-11-12T07:57:38.928Z,18.00
2018-11-12T08:00:12.700Z,18.00
2018-11-12T08:02:42.428Z,18.00
2018-11-12T08:05:11.752Z,18.00
2018-11-12T08:07:41.004Z,18.00
2018-11-12T08:10:12.184Z,18.10
2018-11-12T08:12:41.164Z,18.00
2018-11-12T08:15:11.260Z,18.00
2018-11-12T08:17:39.930Z,18.10
2018-11-12T08:20:10.676Z,18.10
2018-11-12T08:22:39.298Z,18.10
2018-11-12T08:25:09.201Z,18.10
2018-11-12T08:27:38.082Z,18.10
2018-11-12T08:30:10.377Z,18.10
2018-11-12T08:32:39.130Z,18.10
2018-11-12T08:35:16.849Z,18.10
2018-11-12T08:37:46.140Z,18.10
2018-11-12T08:40:16.397Z,18.10
2018-11-12T08:42:45.152Z,18.20
2018-11-12T08:45:14.075Z,18.30
2018-11-12T08:47:44.177Z,18.30
2018-11-12T08:50:14.931Z,18.30
2018-11-12T08:52:44.617Z,18.40
2018-11-12T08:55:15.071Z,18.40
2018-11-12T08:57:47.869Z,18.40
2018-11-12T09:00:17.146Z,18.40
2018-11-12T09:02:45.935Z,18.40
2018-11-12T09:05:15.640Z,18.40
2018-11-12T09:07:45.922Z,18.40
2018-11-12T09:10:16.413Z,18.40
2018-11-12T09:12:45.459Z,18.40
2018-11-12T09:15:14.371Z,18.40
2018-11-12T09:17:43.916Z,18.40
2018-11-12T09:20:17.168Z,18.50
2018-11-12T09:22:45.872Z,18.50
2018-11-12T09:25:15.847Z,18.50
2018-11-12T09:27:44.584Z,18.60
2018-11-12T09:30:16.024Z,18.60
2018-11-12T09:32:44.968Z,18.60
2018-11-12T09:35:21.210Z,18.60
2018-11-12T09:37:51.492Z,18.60
2018-11-12T09:40:21.618Z,18.60
2018-11-12T09:42:50.417Z,18.70
2018-11-12T09:45:19.103Z,18.70
2018-11-12T09:47:47.858Z,18.60
2018-11-12T09:50:17.800Z,18.70
2018-11-12T09:52:49.455Z,18.70
2018-11-12T09:55:18.837Z,18.60
2018-11-12T09:57:48.947Z,18.70
2018-11-12T10:00:18.842Z,18.70
2018-11-12T10:02:48.717Z,18.70
2018-11-12T10:05:18.198Z,18.70
2018-11-12T10:07:49.212Z,18.80
2018-11-12T10:10:36.705Z,18.80
2018-11-12T10:13:06.056Z,18.80
2018-11-12T10:15:35.918Z,18.80
2018-11-12T10:18:10.155Z,18.80
2018-11-12T10:20:29.972Z,18.90
2018-11-12T10:22:58.611Z,18.90
2018-11-12T10:25:27.263Z,18.80
2018-11-12T10:27:55.940Z,18.80
2018-11-12T10:30:24.593Z,18.90
2018-11-12T10:32:53.309Z,18.90
2018-11-12T10:35:21.980Z,18.90
2018-11-12T10:37:50.677Z,19.00
2018-11-12T10:40:23.501Z,19.00
2018-11-12T10:42:52.282Z,19.10
2018-11-12T10:45:21.053Z,19.10
2018-11-12T10:47:50.774Z,19.10
2018-11-12T10:50:19.584Z,19.10
2018-11-12T10:52:48.271Z,19.10
2018-11-12T10:55:18.362Z,19.10
2018-11-12T10:57:47.411Z,19.20
2018-11-12T11:00:30.797Z,19.30
2018-11-12T11:03:06.081Z,19.50
2018-11-12T11:05:35.374Z,19.70
2018-11-12T11:08:04.100Z,19.70
2018-11-12T11:10:32.788Z,19.70
2018-11-12T11:13:02.488Z,19.70
2018-11-12T11:15:31.911Z,19.60
2018-11-12T11:18:00.598Z,19.50
2018-11-12T11:20:29.516Z,19.50
2018-11-12T11:22:58.424Z,19.50
2018-11-12T11:25:27.136Z,19.50
2018-11-12T11:27:55.860Z,19.50
2018-11-12T11:30:24.540Z,19.50
2018-11-12T11:32:53.187Z,19.60
2018-11-12T11:35:22.147Z,19.60
2018-11-12T11:37:50.891Z,19.60
2018-11-12T11:40:24.768Z,19.50
2018-11-12T11:42:54.396Z,19.50
2018-11-12T11:45:23.184Z,19.60
2018-11-12T11:47:52.737Z,19.60
2018-11-12T11:50:22.859Z,19.60
2018-11-12T11:52:51.496Z,19.60
2018-11-12T11:55:21.420Z,19.60
2018-11-12T11:57:50.460Z,19.50
2018-11-12T12:00:24.361Z,19.40
2018-11-12T12:02:53.919Z,19.30
2018-11-12T12:05:23.420Z,19.30
2018-11-12T12:07:53.116Z,19.30
2018-11-12T12:10:21.805Z,19.30
2018-11-12T12:12:51.174Z,19.30
2018-11-12T12:15:20.519Z,19.30
2018-11-12T12:17:49.187Z,19.20
2018-11-12T12:20:19.247Z,19.20
2018-11-12T12:22:47.910Z,19.20
2018-11-12T12:25:17.367Z,19.10
2018-11-12T12:27:46.469Z,19.00
2018-11-12T12:30:17.207Z,19.10
2018-11-12T12:32:46.723Z,19.00
2018-11-12T12:35:15.488Z,18.90
2018-11-12T12:37:44.899Z,19.00
2018-11-12T12:40:15.902Z,18.90
2018-11-12T12:42:44.537Z,18.80
2018-11-12T12:45:14.521Z,18.80
2018-11-12T12:47:43.620Z,18.80
2018-11-12T12:50:13.261Z,18.70
2018-11-12T12:52:41.905Z,18.80
2018-11-12T12:55:11.545Z,18.80
2018-11-12T12:57:40.948Z,18.80
2018-11-12T13:00:21.692Z,18.80
2018-11-12T13:02:50.384Z,18.80
2018-11-12T13:05:19.063Z,18.80
2018-11-12T13:07:47.751Z,18.80
2018-11-12T13:10:17.702Z,18.80
2018-11-12T13:12:46.356Z,18.70
2018-11-12T13:15:16.232Z,18.70
2018-11-12T13:17:45.704Z,18.70
2018-11-12T13:20:15.624Z,18.70
2018-11-12T13:22:44.961Z,18.70
2018-11-12T13:25:13.731Z,18.80
2018-11-12T13:27:42.876Z,18.80
2018-11-12T13:30:14.654Z,18.80
2018-11-12T13:32:43.958Z,18.80
2018-11-12T13:35:13.932Z,18.80
2018-11-12T13:37:42.785Z,18.80
2018-11-12T13:40:17.098Z,18.80
2018-11-12T13:42:49.038Z,18.80
2018-11-12T13:45:17.693Z,18.80
2018-11-12T13:47:46.808Z,18.70
2018-11-12T13:50:16.867Z,18.70
2018-11-12T13:52:45.818Z,18.70
2018-11-12T13:55:15.400Z,18.70
2018-11-12T13:57:44.057Z,18.70
2018-11-12T14:00:14.646Z,18.80
2018-11-12T14:02:44.041Z,18.80
2018-11-12T14:05:14.469Z,18.80
2018-11-12T14:07:43.544Z,18.90
2018-11-12T14:10:13.389Z,18.90
2018-11-12T14:12:42.527Z,18.60
2018-11-12T14:15:14.071Z,18.80
2018-11-12T14:17:43.119Z,18.90
2018-11-12T14:20:11.897Z,18.90
2018-11-12T14:22:40.572Z,18.80
2018-11-12T14:25:10.703Z,18.80
2018-11-12T14:27:39.392Z,18.80
2018-11-12T14:30:10.645Z,18.80
2018-11-12T14:32:39.329Z,18.80
2018-11-12T14:35:08.837Z,18.70
2018-11-12T14:37:37.544Z,18.70
2018-11-12T14:40:07.449Z,18.70
2018-11-12T14:42:36.165Z,18.70
2018-11-12T14:45:05.506Z,18.70
2018-11-12T14:47:34.197Z,18.70
2018-11-12T14:50:02.868Z,18.70
2018-11-12T14:55:13.256Z,18.70
2018-11-12T14:57:41.949Z,18.70
2018-11-12T15:00:13.469Z,18.70
2018-11-12T15:02:42.113Z,18.70
2018-11-12T15:05:10.964Z,18.70
2018-11-12T15:07:39.656Z,18.70
2018-11-12T15:10:09.787Z,18.70
2018-11-12T15:12:38.455Z,18.70
2018-11-12T15:15:08.541Z,18.70
2018-11-12T15:17:37.276Z,18.70
2018-11-12T15:20:07.904Z,18.70
2018-11-12T15:22:36.628Z,18.60
2018-11-12T15:25:07.519Z,18.60
2018-11-12T15:27:36.192Z,18.60
2018-11-12T15:30:07.056Z,18.60
2018-11-12T15:32:35.738Z,18.60
2018-11-12T15:35:04.871Z,18.60
2018-11-12T15:37:33.654Z,18.60
2018-11-12T15:40:02.380Z,18.60
2018-11-12T15:42:31.033Z,18.60
2018-11-12T15:44:59.671Z,18.50
2018-11-12T15:47:28.292Z,18.50
2018-11-12T15:49:56.948Z,18.50
2018-11-12T15:52:25.568Z,18.40
2018-11-12T15:54:54.326Z,18.40
2018-11-12T15:57:23.134Z,18.40
2018-11-12T15:59:51.672Z,18.40
2018-11-12T16:02:20.316Z,18.40
2018-11-12T16:04:48.923Z,18.40
2018-11-12T16:07:17.573Z,18.30
2018-11-12T16:09:46.212Z,18.40
2018-11-12T16:12:14.886Z,18.40
2018-11-12T16:14:43.543Z,18.30
2018-11-12T16:17:12.168Z,18.30
2018-11-12T16:19:40.799Z,18.30
2018-11-12T16:22:09.437Z,18.30
2018-11-12T16:24:38.053Z,18.30
2018-11-12T16:27:06.751Z,18.30
2018-11-12T16:29:35.386Z,18.30
2018-11-12T16:32:04.044Z,18.30
2018-11-12T16:34:32.676Z,18.30
2018-11-12T16:37:01.341Z,18.30
2018-11-12T16:39:29.954Z,18.30
2018-11-12T16:41:58.648Z,18.30
2018-11-12T16:44:27.273Z,18.20
2018-11-12T16:46:55.913Z,18.20
2018-11-12T16:49:24.568Z,18.20
2018-11-12T16:51:53.925Z,18.20
2018-11-12T16:54:22.572Z,18.20
2018-11-12T16:56:51.257Z,18.20
2018-11-12T16:59:19.924Z,18.20
2018-11-12T17:01:48.558Z,18.30
2018-11-12T17:04:17.234Z,18.20
2018-11-12T17:06:45.893Z,18.20
2018-11-12T17:09:14.528Z,18.20
2018-11-12T17:11:43.259Z,18.10
2018-11-12T17:14:11.876Z,18.20
2018-11-12T17:16:40.579Z,18.20
2018-11-12T17:19:09.278Z,18.20
2018-11-12T17:21:37.945Z,18.20
2018-11-12T17:24:06.617Z,18.20
2018-11-12T17:26:35.238Z,18.20
2018-11-12T17:29:04.020Z,18.10
2018-11-12T17:31:32.641Z,18.10
2018-11-12T17:34:01.317Z,18.20
2018-11-12T17:36:29.994Z,18.20
2018-11-12T17:38:58.904Z,18.10
2018-11-12T17:41:27.680Z,18.20
2018-11-12T17:43:56.433Z,18.10
2018-11-12T17:46:25.081Z,18.10
2018-11-12T17:48:53.709Z,18.10
2018-11-12T17:51:22.361Z,18.10
2018-11-12T17:53:51.003Z,18.10
2018-11-12T17:56:19.679Z,18.10
2018-11-12T17:58:48.293Z,18.10
2018-11-12T18:01:16.975Z,18.10
2018-11-12T18:03:45.616Z,18.10
2018-11-12T18:06:14.308Z,18.10
2018-11-12T18:08:43.085Z,18.10
2018-11-12T18:11:11.721Z,18.20
2018-11-12T18:13:40.377Z,18.10
2018-11-12T18:16:09.096Z,18.10
2018-11-12T18:18:37.771Z,18.10
2018-11-12T18:21:06.428Z,18.10
2018-11-12T18:23:35.068Z,18.10
2018-11-12T18:26:03.798Z,18.10
2018-11-12T18:28:32.461Z,18.10
2018-11-12T18:31:01.254Z,18.10
2018-11-12T18:33:29.821Z,18.10
2018-11-12T18:35:58.476Z,18.10
2018-11-12T18:38:27.108Z,18.10
2018-11-12T18:40:55.754Z,18.10
2018-11-12T18:43:24.407Z,18.10
2018-11-12T18:45:53.048Z,18.10
2018-11-12T18:48:21.724Z,18.10
2018-11-12T18:50:50.346Z,18.10
2018-11-12T18:53:18.992Z,18.10
2018-11-12T18:55:47.628Z,18.10
2018-11-12T18:58:16.266Z,18.10
2018-11-12T19:00:44.926Z,18.10
2018-11-12T19:03:13.564Z,18.10
2018-11-12T19:05:42.191Z,18.10
2018-11-12T19:08:10.821Z,18.10
2018-11-12T19:10:39.456Z,18.00
2018-11-12T19:13:08.123Z,18.00
2018-11-12T19:15:37.748Z,18.00
2018-11-12T19:18:08.603Z,18.00
2018-11-12T19:20:37.264Z,18.00
2018-11-12T19:23:06.385Z,18.00
2018-11-12T19:25:35.068Z,18.00
2018-11-12T19:28:03.736Z,18.00
2018-11-12T19:30:32.453Z,18.00
2018-11-12T19:33:01.099Z,18.00
2018-11-12T19:35:31.064Z,18.00
2018-11-12T19:37:59.712Z,18.00
2018-11-12T19:40:29.590Z,18.00
2018-11-12T19:42:58.361Z,18.00
2018-11-12T19:45:27.120Z,17.90
2018-11-12T19:47:55.816Z,17.90
2018-11-12T19:50:25.812Z,17.90
2018-11-12T19:52:55.608Z,17.90
2018-11-12T19:55:24.233Z,17.90
2018-11-12T19:57:52.877Z,17.90
2018-11-12T20:00:22.866Z,17.80
2018-11-12T20:02:52.688Z,17.90
2018-11-12T20:05:21.356Z,17.80
2018-11-12T20:07:50.007Z,17.90
2018-11-12T20:10:19.925Z,17.90
2018-11-12T20:12:48.564Z,17.90
2018-11-12T20:15:18.586Z,17.90
2018-11-12T20:17:48.200Z,18.00
2018-11-12T20:20:21.395Z,17.90
2018-11-12T20:22:50.486Z,18.00
2018-11-12T20:25:19.781Z,18.00
2018-11-12T20:27:49.075Z,18.00
2018-11-12T20:30:26.452Z,18.00
2018-11-12T20:32:55.123Z,17.90
2018-11-12T20:35:23.792Z,18.00
2018-11-12T20:37:52.433Z,18.00
2018-11-12T20:40:21.025Z,18.00
2018-11-12T20:42:50.003Z,18.00
2018-11-12T20:45:19.839Z,18.00
2018-11-12T20:47:49.769Z,18.00
2018-11-12T20:50:18.492Z,18.00
2018-11-12T20:52:47.199Z,18.00
2018-11-12T20:55:16.612Z,18.00
2018-11-12T20:57:45.491Z,18.00
2018-11-12T21:00:17.323Z,18.00
2018-11-12T21:02:47.136Z,18.00
2018-11-12T21:05:16.261Z,18.00
2018-11-12T21:07:44.891Z,18.00
2018-11-12T21:10:16.089Z,18.00
2018-11-12T21:12:45.195Z,18.00
2018-11-12T21:15:14.807Z,17.90
2018-11-12T21:17:43.683Z,17.80
2018-11-12T21:20:21.516Z,17.80
2018-11-12T21:22:50.335Z,17.80
2018-11-12T21:25:22.890Z,17.80
2018-11-12T21:27:51.625Z,17.70
2018-11-12T21:30:21.547Z,17.70
2018-11-12T21:32:50.236Z,17.70
2018-11-12T21:35:18.867Z,17.80
2018-11-12T21:37:48.043Z,17.70
2018-11-12T21:40:20.155Z,17.70
2018-11-12T21:42:48.826Z,17.70
2018-11-12T21:45:19.094Z,17.70
2018-11-12T21:47:47.723Z,17.70
2018-11-12T21:50:17.616Z,17.70
2018-11-12T21:52:46.263Z,17.70
2018-11-12T21:55:14.869Z,17.60
2018-11-12T21:57:43.924Z,17.70
2018-11-12T22:00:22.899Z,17.70
2018-11-12T22:02:52.997Z,17.70
2018-11-12T22:05:21.700Z,17.60
2018-11-12T22:07:50.312Z,17.60
2018-11-12T22:10:19.272Z,17.60
2018-11-12T22:12:48.972Z,17.60
2018-11-12T22:15:17.593Z,17.60
2018-11-12T22:17:46.228Z,17.60
2018-11-12T22:20:16.169Z,17.60
2018-11-12T22:22:44.960Z,17.60
2018-11-12T22:25:16.880Z,17.60
2018-11-12T22:27:46.135Z,17.60
2018-11-12T22:30:15.920Z,17.60
2018-11-12T22:32:45.935Z,17.60
2018-11-12T22:35:14.596Z,17.60
2018-11-12T22:37:43.827Z,17.50
2018-11-12T22:40:13.217Z,17.50
2018-11-12T22:42:42.619Z,17.60
2018-11-12T22:45:13.091Z,17.50
2018-11-12T22:47:42.040Z,17.50
2018-11-12T22:50:11.160Z,17.50
2018-11-12T22:52:40.234Z,17.50
2018-11-12T22:55:10.148Z,17.50
2018-11-12T22:57:38.841Z,17.50
2018-11-12T23:00:18.056Z,17.50
2018-11-12T23:02:47.012Z,17.50
2018-11-12T23:05:16.177Z,17.50
2018-11-12T23:07:45.478Z,17.50
2018-11-12T23:10:14.448Z,17.40
2018-11-12T23:12:43.115Z,17.40
2018-11-12T23:15:12.385Z,17.40
2018-11-12T23:17:41.234Z,17.40
2018-11-12T23:20:16.969Z,17.40
2018-11-12T23:22:46.472Z,17.50
2018-11-12T23:25:15.115Z,17.50
2018-11-12T23:27:44.507Z,17.50
2018-11-12T23:30:14.814Z,17.50
2018-11-12T23:32:43.451Z,17.40
2018-11-12T23:35:14.330Z,17.40
2018-11-12T23:37:43.619Z,17.40
2018-11-12T23:40:12.731Z,17.40
2018-11-12T23:42:41.807Z,17.40
2018-11-12T23:45:10.608Z,17.40
2018-11-12T23:47:39.519Z,17.40
2018-11-12T23:50:10.377Z,17.40
2018-11-12T23:52:39.189Z,17.40
2018-11-12T23:55:07.896Z,17.40
2018-11-12T23:57:36.534Z,17.40
